sensor_id;sensor_type;location;lat;lon;timestamp;P1;P2;P0
30713;PMS7003;17465;47.934;33.430;2023-02-01T00:01:07;31.00;28.75;13.75
30713;PMS7003;17465;47.934;33.430;2023-02-01T00:03:39;32.50;31.75;18.00
30713;PMS7003;17465;47.934;33.430;2023-02-01T00:06:11;44.00;37.25;18.50
30713;PMS7003;17465;47.934;33.430;2023-02-01T00:08:42;43.25;39.50;22.25
30713;PMS7003;17465;47.934;33.430;2023-02-01T00:11:31;37.25;33.50;21.50
30713;PMS7003;17465;47.934;33.430;2023-02-01T00:13:57;50.00;37.75;20.25
30713;PMS7003;17465;47.934;33.430;2023-02-01T00:16:29;43.50;35.00;19.50
30713;PMS7003;17465;47.934;33.430;2023-02-01T00:19:01;41.75;33.00;21.50
30713;PMS7003;17465;47.934;33.430;2023-02-01T00:21:34;34.25;29.50;10.00
30713;PMS7003;17465;47.934;33.430;2023-02-01T00:24:07;35.00;33.75;19.75
30713;PMS7003;17465;47.934;33.430;2023-02-01T00:26:40;37.75;33.00;18.25
30713;PMS7003;17465;47.934;33.430;2023-02-01T00:32:20;38.00;34.75;18.25
30713;PMS7003;17465;47.934;33.430;2023-02-01T00:35:38;33.75;33.75;19.25
30713;PMS7003;17465;47.934;33.430;2023-02-01T00:37:53;23.50;20.50;10.00
30713;PMS7003;17465;47.934;33.430;2023-02-01T00:40:24;37.25;35.50;18.00
30713;PMS7003;17465;47.934;33.430;2023-02-01T00:42:55;36.75;36.00;17.25
30713;PMS7003;17465;47.934;33.430;2023-02-01T00:45:25;38.25;36.00;16.50
30713;PMS7003;17465;47.934;33.430;2023-02-01T00:47:56;35.75;32.00;15.00
30713;PMS7003;17465;47.934;33.430;2023-02-01T00:50:26;45.00;36.75;20.00
30713;PMS7003;17465;47.934;33.430;2023-02-01T00:52:57;44.50;39.75;19.75
30713;PMS7003;17465;47.934;33.430;2023-02-01T00:55:28;37.75;34.75;18.25
30713;PMS7003;17465;47.934;33.430;2023-02-01T00:58:01;32.00;32.00;20.75
30713;PMS7003;17465;47.934;33.430;2023-02-01T01:00:32;36.75;26.25;17.00
30713;PMS7003;17465;47.934;33.430;2023-02-01T01:03:03;37.50;33.00;17.00
30713;PMS7003;17465;47.934;33.430;2023-02-01T01:05:34;41.00;35.75;18.50
30713;PMS7003;17465;47.934;33.430;2023-02-01T01:08:06;34.00;32.50;14.25
30713;PMS7003;17465;47.934;33.430;2023-02-01T01:10:38;33.25;32.75;14.25
30713;PMS7003;17465;47.934;33.430;2023-02-01T01:13:09;27.75;25.75;15.00
30713;PMS7003;17465;47.934;33.430;2023-02-01T01:15:40;20.25;19.50;6.25
30713;PMS7003;17465;47.934;33.430;2023-02-01T01:18:11;29.00;26.00;16.00
30713;PMS7003;17465;47.934;33.430;2023-02-01T01:20:43;35.00;29.50;16.00
30713;PMS7003;17465;47.934;33.430;2023-02-01T01:23:13;36.75;34.50;18.00
30713;PMS7003;17465;47.934;33.430;2023-02-01T01:25:44;32.50;30.00;15.50
30713;PMS7003;17465;47.934;33.430;2023-02-01T01:28:14;39.75;33.50;19.00
30713;PMS7003;17465;47.934;33.430;2023-02-01T01:30:44;40.00;35.75;17.00
30713;PMS7003;17465;47.934;33.430;2023-02-01T01:33:15;33.25;30.75;15.50
30713;PMS7003;17465;47.934;33.430;2023-02-01T01:35:46;37.00;33.50;18.50
30713;PMS7003;17465;47.934;33.430;2023-02-01T01:38:16;24.00;17.00;5.50
30713;PMS7003;17465;47.934;33.430;2023-02-01T01:40:47;26.50;25.75;15.00
30713;PMS7003;17465;47.934;33.430;2023-02-01T01:43:18;40.75;33.75;15.00
30713;PMS7003;17465;47.934;33.430;2023-02-01T01:45:54;42.25;33.00;17.50
30713;PMS7003;17465;47.934;33.430;2023-02-01T01:48:28;39.75;34.00;15.25
30713;PMS7003;17465;47.934;33.430;2023-02-01T01:51:03;32.00;28.25;16.00
30713;PMS7003;17465;47.934;33.430;2023-02-01T01:53:40;32.50;31.50;18.25
30713;PMS7003;17465;47.934;33.430;2023-02-01T01:56:10;43.50;36.75;18.00
30713;PMS7003;17465;47.934;33.430;2023-02-01T01:58:42;29.50;28.25;15.00
30713;PMS7003;17465;47.934;33.430;2023-02-01T02:01:12;33.50;29.50;15.00
30713;PMS7003;17465;47.934;33.430;2023-02-01T02:03:43;36.00;33.25;16.25
30713;PMS7003;17465;47.934;33.430;2023-02-01T02:06:18;33.25;33.00;17.25
30713;PMS7003;17465;47.934;33.430;2023-02-01T02:08:51;36.00;32.75;17.75
30713;PMS7003;17465;47.934;33.430;2023-02-01T02:11:22;46.75;38.75;19.50
30713;PMS7003;17465;47.934;33.430;2023-02-01T02:13:53;47.25;42.00;20.00
30713;PMS7003;17465;47.934;33.430;2023-02-01T02:16:30;36.00;32.75;17.25
30713;PMS7003;17465;47.934;33.430;2023-02-01T02:22:12;43.25;39.25;21.25
30713;PMS7003;17465;47.934;33.430;2023-02-01T02:30:59;49.75;44.50;25.00
30713;PMS7003;17465;47.934;33.430;2023-02-01T02:33:52;42.50;40.25;21.00
30713;PMS7003;17465;47.934;33.430;2023-02-01T02:36:50;38.25;32.50;17.00
30713;PMS7003;17465;47.934;33.430;2023-02-01T02:42:09;46.00;41.00;24.75
30713;PMS7003;17465;47.934;33.430;2023-02-01T02:44:48;39.00;35.50;21.25
30713;PMS7003;17465;47.934;33.430;2023-02-01T02:47:22;41.50;41.00;22.50
30713;PMS7003;17465;47.934;33.430;2023-02-01T02:50:11;57.50;45.50;22.75
30713;PMS7003;17465;47.934;33.430;2023-02-01T02:52:56;48.75;44.75;23.00
30713;PMS7003;17465;47.934;33.430;2023-02-01T02:55:27;39.50;36.75;18.50
30713;PMS7003;17465;47.934;33.430;2023-02-01T02:57:59;55.25;42.25;21.25
30713;PMS7003;17465;47.934;33.430;2023-02-01T03:00:32;32.00;30.75;10.00
30713;PMS7003;17465;47.934;33.430;2023-02-01T03:03:04;50.25;43.75;22.75
30713;PMS7003;17465;47.934;33.430;2023-02-01T03:05:49;50.75;44.25;23.00
30713;PMS7003;17465;47.934;33.430;2023-02-01T03:09:32;46.75;42.50;23.75
30713;PMS7003;17465;47.934;33.430;2023-02-01T03:12:05;38.75;36.75;14.00
30713;PMS7003;17465;47.934;33.430;2023-02-01T03:14:47;52.00;44.75;24.00
30713;PMS7003;17465;47.934;33.430;2023-02-01T03:17:21;50.25;41.00;18.25
30713;PMS7003;17465;47.934;33.430;2023-02-01T03:19:52;37.25;32.00;8.25
30713;PMS7003;17465;47.934;33.430;2023-02-01T03:22:25;53.25;45.50;23.75
30713;PMS7003;17465;47.934;33.430;2023-02-01T03:25:08;46.00;43.00;20.75
30713;PMS7003;17465;47.934;33.430;2023-02-01T03:27:41;60.25;49.00;26.75
30713;PMS7003;17465;47.934;33.430;2023-02-01T03:30:22;63.00;48.75;28.00
30713;PMS7003;17465;47.934;33.430;2023-02-01T03:33:00;63.75;50.75;28.75
30713;PMS7003;17465;47.934;33.430;2023-02-01T03:35:54;51.25;45.25;21.75
30713;PMS7003;17465;47.934;33.430;2023-02-01T03:38:38;59.50;49.50;28.50
30713;PMS7003;17465;47.934;33.430;2023-02-01T03:44:20;62.50;47.50;25.25
30713;PMS7003;17465;47.934;33.430;2023-02-01T03:46:52;63.00;49.75;25.50
30713;PMS7003;17465;47.934;33.430;2023-02-01T03:49:29;60.50;50.00;27.75
30713;PMS7003;17465;47.934;33.430;2023-02-01T03:52:09;56.50;47.25;27.50
30713;PMS7003;17465;47.934;33.430;2023-02-01T03:54:41;63.75;52.00;28.00
30713;PMS7003;17465;47.934;33.430;2023-02-01T03:57:16;57.00;45.50;19.25
30713;PMS7003;17465;47.934;33.430;2023-02-01T03:59:48;67.50;52.75;31.00
30713;PMS7003;17465;47.934;33.430;2023-02-01T04:02:20;56.25;46.75;27.00
30713;PMS7003;17465;47.934;33.430;2023-02-01T04:04:51;50.50;46.50;24.00
30713;PMS7003;17465;47.934;33.430;2023-02-01T04:07:21;55.25;42.50;20.00
30713;PMS7003;17465;47.934;33.430;2023-02-01T04:09:52;55.75;46.00;24.00
30713;PMS7003;17465;47.934;33.430;2023-02-01T08:39:53;68.50;55.00;33.00
30713;PMS7003;17465;47.934;33.430;2023-02-01T08:42:24;68.75;55.50;34.25
30713;PMS7003;17465;47.934;33.430;2023-02-01T08:44:55;57.75;48.00;30.00
30713;PMS7003;17465;47.934;33.430;2023-02-01T08:47:26;70.50;55.50;30.00
30713;PMS7003;17465;47.934;33.430;2023-02-01T08:49:56;64.25;53.00;30.50
30713;PMS7003;17465;47.934;33.430;2023-02-01T08:55:26;65.25;53.25;30.25
30713;PMS7003;17465;47.934;33.430;2023-02-01T09:01:25;54.75;46.25;20.25
30713;PMS7003;17465;47.934;33.430;2023-02-01T09:04:10;61.25;50.25;30.00
30713;PMS7003;17465;47.934;33.430;2023-02-01T09:06:40;64.00;51.50;30.25
30713;PMS7003;17465;47.934;33.430;2023-02-01T09:09:12;59.75;47.50;29.25
30713;PMS7003;17465;47.934;33.430;2023-02-01T09:11:46;56.50;46.50;30.00
30713;PMS7003;17465;47.934;33.430;2023-02-01T09:14:21;62.75;51.25;31.00
30713;PMS7003;17465;47.934;33.430;2023-02-01T09:16:52;56.75;44.75;24.75
30713;PMS7003;17465;47.934;33.430;2023-02-01T09:19:27;57.00;47.25;28.75
30713;PMS7003;17465;47.934;33.430;2023-02-01T09:22:03;61.50;47.50;27.25
30713;PMS7003;17465;47.934;33.430;2023-02-01T09:24:37;60.75;48.75;27.00
30713;PMS7003;17465;47.934;33.430;2023-02-01T09:27:07;59.25;48.00;28.75
30713;PMS7003;17465;47.934;33.430;2023-02-01T09:29:39;58.00;46.00;27.00
30713;PMS7003;17465;47.934;33.430;2023-02-01T09:32:20;59.25;47.75;28.00
30713;PMS7003;17465;47.934;33.430;2023-02-01T09:47:16;49.25;43.75;24.75
30713;PMS7003;17465;47.934;33.430;2023-02-01T09:50:10;46.25;41.00;16.25
30713;PMS7003;17465;47.934;33.430;2023-02-01T09:52:54;54.00;45.50;25.50
30713;PMS7003;17465;47.934;33.430;2023-02-01T09:55:38;61.75;48.25;26.75
30713;PMS7003;17465;47.934;33.430;2023-02-01T09:58:20;63.00;48.75;28.50
30713;PMS7003;17465;47.934;33.430;2023-02-01T10:01:19;63.25;50.25;30.00
30713;PMS7003;17465;47.934;33.430;2023-02-01T10:04:13;67.25;54.50;30.00
30713;PMS7003;17465;47.934;33.430;2023-02-01T10:18:12;65.50;50.50;28.00
30713;PMS7003;17465;47.934;33.430;2023-02-01T10:23:57;65.00;52.00;28.25
30713;PMS7003;17465;47.934;33.430;2023-02-01T10:26:32;55.50;47.00;26.25
30713;PMS7003;17465;47.934;33.430;2023-02-01T10:29:04;53.75;45.50;26.00
30713;PMS7003;17465;47.934;33.430;2023-02-01T10:31:38;67.50;53.25;27.50
30713;PMS7003;17465;47.934;33.430;2023-02-01T10:34:14;67.25;53.75;30.00
30713;PMS7003;17465;47.934;33.430;2023-02-01T10:37:24;65.00;49.50;27.50
30713;PMS7003;17465;47.934;33.430;2023-02-01T10:43:21;52.75;42.75;24.75
30713;PMS7003;17465;47.934;33.430;2023-02-01T10:46:03;49.00;42.25;22.00
30713;PMS7003;17465;47.934;33.430;2023-02-01T10:48:42;59.75;48.50;25.50
30713;PMS7003;17465;47.934;33.430;2023-02-01T10:51:24;60.25;48.00;26.50
30713;PMS7003;17465;47.934;33.430;2023-02-01T10:54:11;55.75;47.00;26.00
30713;PMS7003;17465;47.934;33.430;2023-02-01T10:56:48;55.50;44.50;24.50
30713;PMS7003;17465;47.934;33.430;2023-02-01T10:59:23;55.75;43.50;27.00
30713;PMS7003;17465;47.934;33.430;2023-02-01T11:02:00;55.25;44.75;22.50
30713;PMS7003;17465;47.934;33.430;2023-02-01T11:04:42;49.75;42.25;26.75
30713;PMS7003;17465;47.934;33.430;2023-02-01T11:09:59;54.75;46.50;26.25
30713;PMS7003;17465;47.934;33.430;2023-02-01T11:15:14;48.00;43.25;29.25
30713;PMS7003;17465;47.934;33.430;2023-02-01T11:17:53;58.75;46.25;29.75
30713;PMS7003;17465;47.934;33.430;2023-02-01T11:20:35;60.75;50.00;31.00
30713;PMS7003;17465;47.934;33.430;2023-02-01T11:23:25;62.75;53.00;35.25
30713;PMS7003;17465;47.934;33.430;2023-02-01T11:25:59;66.50;55.50;38.75
30713;PMS7003;17465;47.934;33.430;2023-02-01T11:28:33;69.00;58.50;37.75
30713;PMS7003;17465;47.934;33.430;2023-02-01T11:31:10;74.75;60.75;41.75
30713;PMS7003;17465;47.934;33.430;2023-02-01T11:33:52;65.25;53.00;37.75
30713;PMS7003;17465;47.934;33.430;2023-02-01T11:36:32;63.00;52.25;32.75
30713;PMS7003;17465;47.934;33.430;2023-02-01T11:39:19;63.75;52.50;32.00
30713;PMS7003;17465;47.934;33.430;2023-02-01T11:47:53;59.50;46.00;27.00
30713;PMS7003;17465;47.934;33.430;2023-02-01T11:50:37;51.25;44.00;25.00
30713;PMS7003;17465;47.934;33.430;2023-02-01T11:56:42;75.25;59.50;41.25
30713;PMS7003;17465;47.934;33.430;2023-02-01T12:02:33;79.00;65.25;44.75
30713;PMS7003;17465;47.934;33.430;2023-02-01T12:05:08;72.50;60.25;42.25
30713;PMS7003;17465;47.934;33.430;2023-02-01T12:08:22;80.25;63.50;43.75
30713;PMS7003;17465;47.934;33.430;2023-02-01T12:11:11;80.25;61.75;42.50
30713;PMS7003;17465;47.934;33.430;2023-02-01T12:16:37;63.00;53.25;36.25
30713;PMS7003;17465;47.934;33.430;2023-02-01T12:25:00;63.00;52.50;32.25
30713;PMS7003;17465;47.934;33.430;2023-02-01T12:27:35;30.50;25.50;13.75
30713;PMS7003;17465;47.934;33.430;2023-02-01T12:36:32;67.25;53.25;31.75
30713;PMS7003;17465;47.934;33.430;2023-02-01T12:47:33;55.50;44.00;26.25
30713;PMS7003;17465;47.934;33.430;2023-02-01T12:50:27;48.00;41.25;21.25
30713;PMS7003;17465;47.934;33.430;2023-02-01T12:53:48;52.00;44.25;25.25
30713;PMS7003;17465;47.934;33.430;2023-02-01T12:56:19;47.50;40.50;23.75
30713;PMS7003;17465;47.934;33.430;2023-02-01T12:58:53;42.00;38.25;23.25
30713;PMS7003;17465;47.934;33.430;2023-02-01T13:01:40;46.25;41.50;23.25
30713;PMS7003;17465;47.934;33.430;2023-02-01T13:06:51;38.25;35.75;20.25
30713;PMS7003;17465;47.934;33.430;2023-02-01T16:58:50;90.25;71.25;42.75
30713;PMS7003;17465;47.934;33.430;2023-02-01T17:01:47;91.50;72.50;46.00
30713;PMS7003;17465;47.934;33.430;2023-02-01T17:07:41;86.00;69.75;43.25
30713;PMS7003;17465;47.934;33.430;2023-02-01T17:10:26;90.00;71.50;41.25
30713;PMS7003;17465;47.934;33.430;2023-02-01T17:19:18;90.50;72.00;44.75
30713;PMS7003;17465;47.934;33.430;2023-02-01T17:21:52;88.50;68.50;41.50
30713;PMS7003;17465;47.934;33.430;2023-02-01T17:24:43;80.25;59.50;37.25
30713;PMS7003;17465;47.934;33.430;2023-02-01T17:27:26;82.25;65.00;40.25
30713;PMS7003;17465;47.934;33.430;2023-02-01T17:30:03;83.00;63.75;41.00
30713;PMS7003;17465;47.934;33.430;2023-02-01T17:32:38;59.25;49.50;26.75
30713;PMS7003;17465;47.934;33.430;2023-02-01T17:35:18;69.50;55.25;34.50
30713;PMS7003;17465;47.934;33.430;2023-02-01T17:40:46;42.50;37.75;19.75
30713;PMS7003;17465;47.934;33.430;2023-02-01T17:43:36;48.25;38.50;19.75
30713;PMS7003;17465;47.934;33.430;2023-02-01T17:46:22;57.50;47.00;26.00
30713;PMS7003;17465;47.934;33.430;2023-02-01T17:49:10;92.00;72.25;43.25
30713;PMS7003;17465;47.934;33.430;2023-02-01T17:52:13;67.00;56.25;33.00
30713;PMS7003;17465;47.934;33.430;2023-02-01T17:54:47;87.25;69.75;42.75
30713;PMS7003;17465;47.934;33.430;2023-02-01T17:57:19;22.25;22.25;13.00
30713;PMS7003;17465;47.934;33.430;2023-02-01T17:59:57;34.75;27.50;14.50
30713;PMS7003;17465;47.934;33.430;2023-02-01T18:05:47;33.00;30.00;16.75
30713;PMS7003;17465;47.934;33.430;2023-02-01T18:08:53;33.00;28.25;17.25
30713;PMS7003;17465;47.934;33.430;2023-02-01T18:11:37;30.00;28.00;16.00
30713;PMS7003;17465;47.934;33.430;2023-02-01T18:14:20;31.25;29.75;18.50
30713;PMS7003;17465;47.934;33.430;2023-02-01T18:17:09;22.00;19.50;10.75
30713;PMS7003;17465;47.934;33.430;2023-02-01T18:20:15;33.25;31.00;19.50
30713;PMS7003;17465;47.934;33.430;2023-02-01T18:25:45;110.00;100.25;58.50
30713;PMS7003;17465;47.934;33.430;2023-02-01T18:28:24;80.50;63.75;36.50
30713;PMS7003;17465;47.934;33.430;2023-02-01T18:31:20;37.00;31.75;18.00
30713;PMS7003;17465;47.934;33.430;2023-02-01T18:37:08;30.00;25.50;15.00
30713;PMS7003;17465;47.934;33.430;2023-02-01T18:39:56;23.75;23.25;12.25
30713;PMS7003;17465;47.934;33.430;2023-02-01T18:42:31;26.25;23.25;14.75
30713;PMS7003;17465;47.934;33.430;2023-02-01T18:45:32;27.25;23.50;14.00
30713;PMS7003;17465;47.934;33.430;2023-02-01T18:48:07;29.50;26.25;14.50
30713;PMS7003;17465;47.934;33.430;2023-02-01T18:50:47;29.50;28.00;16.75
30713;PMS7003;17465;47.934;33.430;2023-02-01T18:53:25;28.25;24.25;11.75
30713;PMS7003;17465;47.934;33.430;2023-02-01T18:56:05;33.00;27.75;15.25
30713;PMS7003;17465;47.934;33.430;2023-02-01T18:58:51;22.00;20.00;9.00
30713;PMS7003;17465;47.934;33.430;2023-02-01T19:01:26;36.75;27.00;16.00
30713;PMS7003;17465;47.934;33.430;2023-02-01T19:07:12;28.25;25.75;16.25
30713;PMS7003;17465;47.934;33.430;2023-02-01T19:09:43;31.25;29.25;15.50
30713;PMS7003;17465;47.934;33.430;2023-02-01T19:12:16;27.25;24.75;13.50
30713;PMS7003;17465;47.934;33.430;2023-02-01T19:14:48;31.75;27.25;15.50
30713;PMS7003;17465;47.934;33.430;2023-02-01T19:17:18;34.25;29.75;18.00
30713;PMS7003;17465;47.934;33.430;2023-02-01T19:19:57;29.67;28.00;15.00
30713;PMS7003;17465;47.934;33.430;2023-02-01T19:22:27;34.75;33.75;16.75
30713;PMS7003;17465;47.934;33.430;2023-02-01T19:25:00;39.75;30.00;15.50
30713;PMS7003;17465;47.934;33.430;2023-02-01T19:27:31;35.00;27.25;15.75
30713;PMS7003;17465;47.934;33.430;2023-02-01T19:30:04;35.25;30.00;17.25
30713;PMS7003;17465;47.934;33.430;2023-02-01T19:33:11;30.00;26.75;15.00
30713;PMS7003;17465;47.934;33.430;2023-02-01T19:35:46;30.00;27.50;16.50
30713;PMS7003;17465;47.934;33.430;2023-02-01T19:38:53;25.25;24.25;11.50
30713;PMS7003;17465;47.934;33.430;2023-02-01T19:41:24;23.50;19.00;6.75
30713;PMS7003;17465;47.934;33.430;2023-02-01T19:44:15;30.25;24.75;12.25
30713;PMS7003;17465;47.934;33.430;2023-02-01T19:47:02;36.00;29.50;12.75
30713;PMS7003;17465;47.934;33.430;2023-02-01T19:49:35;30.00;30.00;15.67
30713;PMS7003;17465;47.934;33.430;2023-02-01T19:52:08;33.75;30.25;16.25
30713;PMS7003;17465;47.934;33.430;2023-02-01T19:54:40;25.00;24.50;13.00
30713;PMS7003;17465;47.934;33.430;2023-02-01T19:57:11;37.50;36.00;19.00
30713;PMS7003;17465;47.934;33.430;2023-02-01T20:00:00;32.50;31.25;18.00
30713;PMS7003;17465;47.934;33.430;2023-02-01T20:02:29;34.75;28.75;15.50
30713;PMS7003;17465;47.934;33.430;2023-02-01T20:05:02;26.50;25.50;12.00
30713;PMS7003;17465;47.934;33.430;2023-02-01T20:10:25;31.25;28.50;14.00
30713;PMS7003;17465;47.934;33.430;2023-02-01T20:13:03;40.75;34.50;17.25
30713;PMS7003;17465;47.934;33.430;2023-02-01T20:15:29;26.75;25.75;12.75
30713;PMS7003;17465;47.934;33.430;2023-02-01T20:18:00;33.25;30.00;16.75
30713;PMS7003;17465;47.934;33.430;2023-02-01T20:20:36;46.75;41.75;19.25
30713;PMS7003;17465;47.934;33.430;2023-02-01T20:23:13;33.00;29.00;17.75
30713;PMS7003;17465;47.934;33.430;2023-02-01T20:25:53;26.50;24.75;11.25
30713;PMS7003;17465;47.934;33.430;2023-02-01T20:28:29;34.75;31.50;15.75
30713;PMS7003;17465;47.934;33.430;2023-02-01T20:31:02;40.00;36.00;16.50
30713;PMS7003;17465;47.934;33.430;2023-02-01T20:33:40;33.00;31.00;14.33
30713;PMS7003;17465;47.934;33.430;2023-02-01T20:36:43;10.00;8.75;0.00
30713;PMS7003;17465;47.934;33.430;2023-02-01T20:39:46;36.25;36.25;19.00
30713;PMS7003;17465;47.934;33.430;2023-02-01T20:42:25;30.50;27.00;14.50
30713;PMS7003;17465;47.934;33.430;2023-02-01T20:45:01;24.67;19.67;9.67
30713;PMS7003;17465;47.934;33.430;2023-02-01T20:47:40;32.00;30.75;15.25
30713;PMS7003;17465;47.934;33.430;2023-02-01T20:50:14;34.50;29.25;17.50
30713;PMS7003;17465;47.934;33.430;2023-02-01T20:52:58;47.50;43.50;27.00
30713;PMS7003;17465;47.934;33.430;2023-02-01T20:55:31;47.75;44.00;26.00
30713;PMS7003;17465;47.934;33.430;2023-02-01T20:58:06;67.75;52.00;32.00
30713;PMS7003;17465;47.934;33.430;2023-02-01T21:00:45;69.75;56.50;32.75
30713;PMS7003;17465;47.934;33.430;2023-02-01T21:03:20;73.25;60.75;35.50
30713;PMS7003;17465;47.934;33.430;2023-02-01T21:05:58;54.50;42.00;21.25
30713;PMS7003;17465;47.934;33.430;2023-02-01T21:08:39;47.25;44.25;25.25
30713;PMS7003;17465;47.934;33.430;2023-02-01T21:11:09;39.25;39.25;16.75
30713;PMS7003;17465;47.934;33.430;2023-02-01T21:16:26;33.50;33.50;19.00
30713;PMS7003;17465;47.934;33.430;2023-02-01T21:19:11;37.25;33.75;15.75
30713;PMS7003;17465;47.934;33.430;2023-02-01T21:21:55;31.00;31.00;15.50
30713;PMS7003;17465;47.934;33.430;2023-02-01T21:24:45;28.25;25.25;16.00
30713;PMS7003;17465;47.934;33.430;2023-02-01T21:27:17;34.25;33.25;17.75
30713;PMS7003;17465;47.934;33.430;2023-02-01T21:29:53;32.75;29.25;15.00
30713;PMS7003;17465;47.934;33.430;2023-02-01T21:32:42;29.33;26.00;15.00
30713;PMS7003;17465;47.934;33.430;2023-02-01T21:35:20;39.50;34.00;19.50
30713;PMS7003;17465;47.934;33.430;2023-02-01T21:38:07;27.00;23.25;12.25
30713;PMS7003;17465;47.934;33.430;2023-02-01T21:43:26;22.50;22.50;12.75
30713;PMS7003;17465;47.934;33.430;2023-02-01T21:45:59;31.75;30.50;15.75
30713;PMS7003;17465;47.934;33.430;2023-02-01T21:48:50;37.75;31.00;18.25
30713;PMS7003;17465;47.934;33.430;2023-02-01T21:51:30;35.00;29.75;17.00
30713;PMS7003;17465;47.934;33.430;2023-02-01T21:54:28;28.75;28.75;17.25
30713;PMS7003;17465;47.934;33.430;2023-02-01T21:59:43;38.25;34.25;16.75
30713;PMS7003;17465;47.934;33.430;2023-02-01T22:02:18;33.00;30.75;18.00
30713;PMS7003;17465;47.934;33.430;2023-02-01T22:04:51;32.75;29.25;15.00
30713;PMS7003;17465;47.934;33.430;2023-02-01T22:07:24;36.75;31.75;16.00
30713;PMS7003;17465;47.934;33.430;2023-02-01T22:10:28;24.75;19.25;8.00
